createdAt,value
2023-05-14T00:00:24.471Z,45.60
2023-05-14T00:02:55.364Z,46.07
2023-05-14T00:05:26.097Z,45.69
2023-05-14T00:07:56.798Z,45.85
2023-05-14T00:10:28.170Z,45.79
2023-05-14T00:12:58.794Z,46.99
2023-05-14T00:15:30.296Z,45.88
2023-05-14T00:18:01.824Z,45.88
2023-05-14T00:20:33.478Z,46.78
2023-05-14T00:23:04.102Z,46.70
2023-05-14T00:25:34.555Z,46.15
2023-05-14T00:28:05.695Z,46.63
2023-05-14T00:30:36.483Z,45.95
2023-05-14T00:33:07.087Z,46.08
2023-05-14T00:35:37.570Z,46.02
2023-05-14T00:38:09.193Z,46.62
2023-05-14T00:40:39.759Z,34.06
2023-05-14T00:43:10.181Z,25.87
2023-05-14T00:45:41.527Z,23.89
2023-05-14T00:48:12.043Z,23.55
2023-05-14T00:50:43.509Z,23.03
2023-05-14T00:55:58.583Z,24.71
2023-05-14T00:58:32.618Z,23.48
2023-05-14T01:03:50.627Z,23.69
2023-05-14T01:06:54.463Z,23.08
2023-05-14T01:09:47.935Z,22.67
2023-05-14T01:12:36.278Z,22.94
2023-05-14T01:15:16.855Z,23.51
2023-05-14T01:17:58.642Z,20.91
2023-05-14T01:20:32.324Z,22.14
2023-05-14T01:23:02.871Z,22.72
2023-05-14T01:25:33.977Z,21.65
2023-05-14T01:28:13.730Z,20.30
2023-05-14T01:31:03.612Z,21.38
2023-05-14T01:33:37.625Z,19.53
2023-05-14T01:36:08.863Z,19.91
2023-05-14T01:38:41.996Z,20.05
2023-05-14T01:41:12.707Z,22.60
2023-05-14T01:43:44.757Z,24.29
2023-05-14T01:48:58.417Z,22.11
2023-05-14T01:51:29.486Z,20.06
2023-05-14T01:54:00.219Z,20.92
2023-05-14T01:56:30.813Z,19.69
2023-05-14T01:59:08.855Z,19.83
2023-05-14T02:01:39.494Z,20.61
2023-05-14T02:06:53.519Z,19.19
2023-05-14T02:09:30.693Z,19.60
2023-05-14T02:12:01.259Z,18.68
2023-05-14T02:14:50.425Z,18.79
2023-05-14T02:17:20.951Z,18.08
2023-05-14T02:30:43.866Z,17.88
2023-05-14T02:33:17.792Z,18.70
2023-05-14T02:35:48.498Z,18.52
2023-05-14T02:41:05.616Z,18.46
2023-05-14T02:46:19.192Z,18.57
2023-05-14T02:54:18.618Z,18.10
2023-05-14T02:56:50.802Z,17.52
2023-05-14T02:59:24.689Z,17.96
2023-05-14T03:01:55.927Z,17.37
2023-05-14T03:04:33.823Z,18.30
2023-05-14T03:07:08.146Z,17.53
2023-05-14T03:09:38.618Z,18.22
2023-05-14T03:17:36.462Z,18.69
2023-05-14T03:20:08.492Z,18.35
2023-05-14T03:25:22.071Z,18.48
2023-05-14T03:27:52.559Z,17.26
2023-05-14T13:48:51.389Z,17.76
2023-05-14T15:02:12.965Z,17.00
2023-05-14T16:12:26.485Z,16.83
2023-05-14T16:33:56.787Z,17.72
2023-05-14T18:14:45.741Z,17.62
2023-05-14T18:43:05.221Z,17.52
2023-05-14T19:46:01.611Z,17.43
2023-05-14T20:08:09.784Z,17.95
2023-05-14T20:37:05.714Z,17.42
2023-05-14T22:14:17.197Z,18.52
2023-05-14T23:04:52.004Z,18.12
